Terminal Aerodrome Forecast
Issued by NWS Portland, ME

Home | Current Version | Previous Version | Text Only | Print | Product List | Glossary On
Versions: 1 2 3 4 5 6 7 8 9 10 11 12 13 14 15 16 17 18 19 20 21 22 23 24 25
000
FTUS41 KGYX 031128
TAFCON
TAF
KCON 031128Z 0312/0412 VRB03KT P6SM SCT080 BKN200
     FM031900 01005KT P6SM VCTS SCT050CB BKN080
     FM040100 06004KT P6SM -SHRA BKN050 OVC070
     FM040500 02005KT P6SM BKN050 BKN080=

USA.gov is the U.S. government's official web portal to all federal, state and local government web resources and services.